createdAt,value
2023-02-15T00:00:08.419Z,26.54
2023-02-15T00:01:08.528Z,30.53
2023-02-15T00:02:08.580Z,28.66
2023-02-15T00:03:08.632Z,26.21
2023-02-15T00:04:08.641Z,30.24
2023-02-15T00:05:08.691Z,26.06
2023-02-15T00:06:08.768Z,29.13
2023-02-15T00:07:08.813Z,26.59
2023-02-15T00:08:08.867Z,28.01
2023-02-15T00:09:08.934Z,28.10
2023-02-15T00:10:08.960Z,27.19
2023-02-15T00:11:09.018Z,27.19
2023-02-15T00:12:09.071Z,27.30
2023-02-15T00:13:09.201Z,27.50
2023-02-15T00:14:09.237Z,27.72
2023-02-15T00:15:09.301Z,25.59
2023-02-15T00:16:09.359Z,27.79
2023-02-15T00:17:09.361Z,31.36
2023-02-15T00:18:09.432Z,28.84
2023-02-15T00:19:09.506Z,28.56
2023-02-15T00:20:09.558Z,29.11
2023-02-15T00:21:09.601Z,31.25
2023-02-15T00:22:09.659Z,28.80
2023-02-15T00:23:09.693Z,29.68
2023-02-15T00:24:09.735Z,28.42
2023-02-15T00:25:09.825Z,28.18
2023-02-15T00:26:09.893Z,31.66
2023-02-15T00:27:09.914Z,28.96
2023-02-15T00:28:09.978Z,28.94
2023-02-15T00:29:10.044Z,31.16
2023-02-15T00:30:10.111Z,29.98
2023-02-15T00:31:10.192Z,31.02
2023-02-15T00:32:10.140Z,31.09
2023-02-15T00:33:10.218Z,31.78
2023-02-15T00:34:10.299Z,33.50
2023-02-15T00:35:10.311Z,30.80
2023-02-15T00:36:10.368Z,30.30
2023-02-15T00:37:10.396Z,31.74
2023-02-15T00:38:10.487Z,32.10
2023-02-15T00:39:10.533Z,31.42
2023-02-15T00:40:10.602Z,32.02
2023-02-15T00:41:10.759Z,30.66
2023-02-15T00:42:10.698Z,28.94
2023-02-15T00:43:10.715Z,31.04
2023-02-15T00:44:10.796Z,31.70
2023-02-15T00:45:10.843Z,28.94
2023-02-15T00:46:10.935Z,26.95
2023-02-15T00:47:10.954Z,27.47
2023-02-15T00:48:11.070Z,27.99
2023-02-15T00:49:11.042Z,28.81
2023-02-15T00:50:11.079Z,29.04
2023-02-15T00:51:11.138Z,27.53
2023-02-15T00:52:11.194Z,27.44
2023-02-15T00:53:11.295Z,29.44
2023-02-15T00:54:11.338Z,25.49
2023-02-15T00:55:11.377Z,27.74
2023-02-15T00:56:11.438Z,26.44
2023-02-15T00:57:11.478Z,28.62
2023-02-15T00:58:11.547Z,30.54
2023-02-15T00:59:11.594Z,28.07
2023-02-15T01:00:11.621Z,28.32
2023-02-15T01:01:11.779Z,29.00
2023-02-15T01:02:11.734Z,26.61
2023-02-15T01:03:11.780Z,26.73
2023-02-15T01:04:11.903Z,30.83
2023-02-15T01:05:11.904Z,27.39
2023-02-15T01:06:11.967Z,33.27
2023-02-15T01:07:12.078Z,26.05
2023-02-15T01:08:12.064Z,25.16
2023-02-15T01:09:12.107Z,28.86
2023-02-15T01:10:12.148Z,28.04
2023-02-15T01:11:12.232Z,27.97
2023-02-15T01:12:12.268Z,28.03
2023-02-15T01:13:12.315Z,25.75
2023-02-15T01:14:12.345Z,28.28
2023-02-15T01:15:12.454Z,27.36
2023-02-15T01:16:12.484Z,25.97
2023-02-15T01:17:12.552Z,28.46
2023-02-15T01:18:12.531Z,28.25
2023-02-15T01:19:12.572Z,25.41
2023-02-15T01:20:12.621Z,25.00
2023-02-15T01:21:12.721Z,30.37
2023-02-15T01:22:12.734Z,28.08
2023-02-15T01:23:12.816Z,29.55
2023-02-15T01:24:12.878Z,25.77
2023-02-15T01:25:12.924Z,25.00
2023-02-15T01:26:12.965Z,28.15
2023-02-15T01:27:13.019Z,26.63
2023-02-15T01:28:13.058Z,28.03
2023-02-15T01:29:13.130Z,29.20
2023-02-15T01:30:13.218Z,26.19
2023-02-15T01:31:13.356Z,26.26
2023-02-15T01:32:13.328Z,28.45
2023-02-15T01:33:13.317Z,27.41
2023-02-15T01:34:13.401Z,25.91
2023-02-15T01:35:13.504Z,26.68
2023-02-15T01:36:13.536Z,26.25
2023-02-15T01:37:13.567Z,31.25
2023-02-15T01:38:13.631Z,29.38
2023-02-15T01:39:13.695Z,29.03
2023-02-15T01:40:13.748Z,29.99
2023-02-15T01:41:13.793Z,29.07
2023-02-15T01:42:13.838Z,28.40
2023-02-15T01:56:14.651Z,30.88
2023-02-15T01:57:14.710Z,28.47
2023-02-15T01:58:14.754Z,29.96
2023-02-15T01:59:14.828Z,26.69
2023-02-15T02:00:14.884Z,30.23
2023-02-15T02:01:14.967Z,26.43
2023-02-15T02:02:14.998Z,29.76
2023-02-15T02:03:15.033Z,26.61
2023-02-15T02:04:15.076Z,26.57
2023-02-15T02:05:15.140Z,27.58
2023-02-15T02:06:15.205Z,29.60
2023-02-15T02:07:15.262Z,29.92
2023-02-15T02:08:15.318Z,25.26
2023-02-15T02:09:15.320Z,29.83
2023-02-15T02:10:15.418Z,27.80
2023-02-15T02:11:15.438Z,25.40
2023-02-15T02:12:15.535Z,27.48
2023-02-15T02:13:15.571Z,29.67
2023-02-15T02:14:15.653Z,29.29
2023-02-15T02:15:15.691Z,28.47
2023-02-15T02:16:15.756Z,28.94
2023-02-15T02:17:15.819Z,29.93
2023-02-15T02:18:15.879Z,27.59
2023-02-15T02:19:15.897Z,28.74
2023-02-15T02:20:15.955Z,29.40
2023-02-15T02:21:16.006Z,34.31
2023-02-15T02:22:16.062Z,28.51
2023-02-15T02:23:16.157Z,27.73
2023-02-15T02:24:16.162Z,29.49
2023-02-15T02:25:16.210Z,27.30
2023-02-15T02:26:16.289Z,26.36
2023-02-15T02:27:16.351Z,30.92
2023-02-15T02:28:16.388Z,29.74
2023-02-15T02:29:16.417Z,27.68
2023-02-15T02:30:16.571Z,29.74
2023-02-15T02:31:16.642Z,27.61
2023-02-15T02:32:16.626Z,29.51
2023-02-15T02:33:16.651Z,26.48
2023-02-15T02:34:16.700Z,27.43
2023-02-15T02:35:16.740Z,29.52
2023-02-15T02:36:16.793Z,26.90
2023-02-15T02:37:16.880Z,28.13
2023-02-15T02:38:16.925Z,29.42
2023-02-15T02:39:16.972Z,26.66
2023-02-15T02:40:17.009Z,27.68
2023-02-15T02:41:17.059Z,29.68
2023-02-15T02:42:17.135Z,31.42
2023-02-15T02:43:17.175Z,26.09
2023-02-15T02:44:17.214Z,26.05
2023-02-15T02:45:17.272Z,25.46
2023-02-15T02:46:17.369Z,27.83
2023-02-15T02:47:17.369Z,29.32
2023-02-15T02:48:17.459Z,28.65
2023-02-15T02:49:17.528Z,27.33
2023-02-15T02:50:17.575Z,28.81
2023-02-15T02:51:17.651Z,27.77
2023-02-15T02:52:17.669Z,27.44
2023-02-15T02:53:17.734Z,25.73
2023-02-15T02:54:17.786Z,30.89
2023-02-15T02:55:17.843Z,27.46
2023-02-15T02:56:17.879Z,29.12
2023-02-15T02:57:17.933Z,29.49
2023-02-15T02:58:18.054Z,28.43
2023-02-15T02:59:18.083Z,25.81
2023-02-15T03:00:18.697Z,32.14
2023-02-15T03:01:18.167Z,32.44
2023-02-15T03:02:18.198Z,30.52
2023-02-15T03:03:18.282Z,28.40
2023-02-15T03:04:18.309Z,30.23
2023-02-15T03:05:18.368Z,27.91
2023-02-15T03:06:18.411Z,26.99
2023-02-15T03:07:18.466Z,28.72
2023-02-15T03:08:18.526Z,28.00
2023-02-15T03:09:18.595Z,27.10
2023-02-15T03:10:18.647Z,28.19
2023-02-15T03:11:18.712Z,28.70
2023-02-15T03:12:18.773Z,30.64
2023-02-15T03:13:18.828Z,26.49
2023-02-15T03:14:18.882Z,28.23
2023-02-15T03:15:18.937Z,28.03
2023-02-15T03:16:19.014Z,26.01
2023-02-15T03:17:19.067Z,28.75
2023-02-15T03:18:19.118Z,29.10
2023-02-15T03:19:19.128Z,28.54
2023-02-15T03:20:19.170Z,29.40
2023-02-15T03:21:19.243Z,28.46
2023-02-15T03:22:19.323Z,28.60
2023-02-15T03:23:19.347Z,28.27
2023-02-15T03:24:19.375Z,27.71
2023-02-15T03:25:19.451Z,30.27
2023-02-15T03:26:19.502Z,28.52
2023-02-15T03:27:19.572Z,31.93
2023-02-15T03:28:19.603Z,30.04
2023-02-15T03:29:19.658Z,27.92
2023-02-15T03:30:19.821Z,30.61
2023-02-15T03:31:19.850Z,27.06
2023-02-15T03:32:19.847Z,30.56
2023-02-15T03:33:19.859Z,27.32
2023-02-15T03:34:19.884Z,25.23
2023-02-15T03:35:19.997Z,28.61
2023-02-15T03:36:20.031Z,29.45
2023-02-15T03:37:20.064Z,26.62
2023-02-15T03:38:20.128Z,27.86
2023-02-15T03:39:20.206Z,27.12
2023-02-15T03:40:20.242Z,27.31
2023-02-15T03:41:20.291Z,31.27
2023-02-15T03:42:20.375Z,31.04
2023-02-15T03:43:20.449Z,27.20
2023-02-15T03:44:20.477Z,26.10
2023-02-15T03:45:20.513Z,30.28
2023-02-15T03:46:20.587Z,30.22
2023-02-15T03:47:20.623Z,31.55
2023-02-15T03:48:20.703Z,29.63
2023-02-15T03:49:20.704Z,27.99
2023-02-15T03:50:20.765Z,31.83
2023-02-15T03:51:20.828Z,31.04
2023-02-15T03:52:20.891Z,27.88
2023-02-15T03:53:21.957Z,29.25
2023-02-15T03:54:20.989Z,29.74
2023-02-15T03:55:21.004Z,27.54
2023-02-15T03:56:21.056Z,25.40
2023-02-15T03:57:21.122Z,29.09
2023-02-15T03:58:21.154Z,31.81
2023-02-15T03:59:21.244Z,29.37
2023-02-15T04:00:21.221Z,28.65
2023-02-15T04:01:21.293Z,27.03
2023-02-15T04:02:21.354Z,26.51
2023-02-15T04:03:21.399Z,27.63
2023-02-15T04:04:21.428Z,28.27
2023-02-15T04:05:21.478Z,25.61
2023-02-15T04:06:21.485Z,28.67
2023-02-15T04:07:21.550Z,28.31
2023-02-15T04:08:21.605Z,27.70
2023-02-15T04:09:21.636Z,27.28
2023-02-15T04:10:21.721Z,28.41
2023-02-15T04:11:21.738Z,26.65
2023-02-15T04:12:21.754Z,25.35
2023-02-15T04:13:21.816Z,31.01
2023-02-15T04:14:21.833Z,28.18
2023-02-15T04:15:21.863Z,28.00
2023-02-15T04:16:22.836Z,25.60
2023-02-15T04:17:21.926Z,28.05
2023-02-15T04:18:21.999Z,27.46
2023-02-15T04:19:22.014Z,29.32
2023-02-15T04:20:22.072Z,28.02
2023-02-15T04:21:22.084Z,25.00
2023-02-15T04:22:22.117Z,28.93
2023-02-15T04:23:22.179Z,28.60
2023-02-15T04:24:22.184Z,28.35
2023-02-15T04:25:22.229Z,28.94
2023-02-15T04:26:22.247Z,27.85
2023-02-15T04:27:22.296Z,27.46
2023-02-15T04:28:22.347Z,28.69
2023-02-15T04:29:22.372Z,31.35
2023-02-15T04:30:22.409Z,27.40
2023-02-15T04:31:22.536Z,29.41
2023-02-15T04:32:22.600Z,28.36
2023-02-15T04:33:22.552Z,31.13
2023-02-15T04:34:22.588Z,31.29
2023-02-15T04:35:22.563Z,30.39
2023-02-15T04:36:22.625Z,28.07
2023-02-15T04:37:22.634Z,27.90
2023-02-15T04:38:22.686Z,32.23
2023-02-15T04:39:22.695Z,28.76
2023-02-15T04:40:22.733Z,28.52
2023-02-15T04:41:22.760Z,28.07
2023-02-15T04:42:22.768Z,29.70
2023-02-15T04:43:22.766Z,28.11
2023-02-15T04:44:22.838Z,27.83
2023-02-15T04:45:22.830Z,31.88
2023-02-15T04:46:22.935Z,28.53
2023-02-15T04:47:22.931Z,30.09
2023-02-15T04:48:22.966Z,30.05
2023-02-15T04:49:22.976Z,31.04
2023-02-15T04:50:23.024Z,27.27
2023-02-15T04:51:23.102Z,27.29
2023-02-15T04:52:23.100Z,29.53
2023-02-15T04:53:23.144Z,27.59
2023-02-15T04:54:23.220Z,29.47
2023-02-15T04:55:23.238Z,28.35
2023-02-15T04:56:23.246Z,25.77
2023-02-15T04:57:23.300Z,28.03
2023-02-15T04:58:23.376Z,26.60
2023-02-15T04:59:23.389Z,27.87
2023-02-15T05:00:23.408Z,28.15
2023-02-15T05:01:23.489Z,26.89
2023-02-15T05:02:23.513Z,27.69
2023-02-15T05:03:23.503Z,26.10
2023-02-15T05:04:23.563Z,27.28
2023-02-15T05:05:23.545Z,25.04
2023-02-15T05:06:23.555Z,28.60
2023-02-15T05:07:23.580Z,26.95
2023-02-15T05:08:23.630Z,26.96
2023-02-15T05:09:23.632Z,28.81
2023-02-15T05:10:23.669Z,28.12
2023-02-15T05:11:23.670Z,25.98
2023-02-15T05:12:23.724Z,27.65
2023-02-15T05:13:23.738Z,26.99
2023-02-15T05:14:23.780Z,27.91
2023-02-15T05:15:23.814Z,26.95
2023-02-15T05:16:23.845Z,26.43
2023-02-15T05:17:23.870Z,28.21
2023-02-15T05:18:23.939Z,28.12
2023-02-15T05:19:23.992Z,29.06
2023-02-15T05:20:23.994Z,29.50
2023-02-15T05:21:24.044Z,27.20
2023-02-15T05:22:24.073Z,29.26
2023-02-15T05:23:24.054Z,27.35
2023-02-15T05:24:24.149Z,28.13
2023-02-15T05:25:24.117Z,28.90
2023-02-15T05:26:24.150Z,27.79
2023-02-15T05:27:24.195Z,31.50
2023-02-15T05:28:24.194Z,28.64
2023-02-15T05:29:24.354Z,30.24
2023-02-15T05:30:24.383Z,26.72
2023-02-15T05:31:24.527Z,29.24
2023-02-15T05:32:24.427Z,29.74
2023-02-15T05:33:24.349Z,28.70
2023-02-15T05:34:24.366Z,28.33
2023-02-15T05:35:25.303Z,29.73
2023-02-15T05:36:25.293Z,28.44
2023-02-15T05:37:24.416Z,28.73
2023-02-15T05:38:24.456Z,30.58
2023-02-15T05:39:24.466Z,30.30
2023-02-15T05:40:24.503Z,28.37
2023-02-15T05:41:24.558Z,28.70
2023-02-15T05:42:24.550Z,31.43
2023-02-15T05:43:24.680Z,28.28
2023-02-15T05:44:24.600Z,30.16
2023-02-15T05:45:24.638Z,29.20
2023-02-15T05:46:24.785Z,27.89
2023-02-15T05:47:24.702Z,29.87
2023-02-15T05:48:24.739Z,28.77
2023-02-15T05:49:24.801Z,29.89
2023-02-15T05:50:24.780Z,28.77
2023-02-15T05:51:24.786Z,27.16
2023-02-15T05:52:24.847Z,28.08
2023-02-15T05:53:24.869Z,30.35
2023-02-15T05:54:24.887Z,27.14
2023-02-15T05:55:24.914Z,29.45
2023-02-15T05:56:24.927Z,30.82
2023-02-15T05:57:24.966Z,28.53
2023-02-15T05:58:25.012Z,28.98
2023-02-15T05:59:25.039Z,28.37
2023-02-15T06:00:25.041Z,31.39
2023-02-15T06:02:44.738Z,25.00
2023-02-15T06:03:44.786Z,25.00
2023-02-15T06:04:44.641Z,25.00
2023-02-15T06:05:44.619Z,25.00
2023-02-15T06:06:44.593Z,25.00
2023-02-15T06:07:44.588Z,25.74
2023-02-15T06:08:44.576Z,27.16
2023-02-15T06:09:44.549Z,27.04
2023-02-15T06:10:44.550Z,25.36
2023-02-15T06:11:44.497Z,26.85
2023-02-15T06:12:44.490Z,28.26
2023-02-15T06:13:44.463Z,26.55
2023-02-15T06:14:44.402Z,27.68
2023-02-15T06:15:44.456Z,27.83
2023-02-15T06:16:44.375Z,28.25
2023-02-15T06:17:44.397Z,27.22
2023-02-15T06:18:44.333Z,27.09
2023-02-15T06:19:44.346Z,26.93
2023-02-15T06:20:44.317Z,26.00
2023-02-15T06:21:44.285Z,27.02
2023-02-15T06:22:44.272Z,27.48
2023-02-15T06:23:44.235Z,27.01
2023-02-15T06:24:44.206Z,27.67
2023-02-15T06:25:44.186Z,29.47
2023-02-15T06:26:44.149Z,27.66
2023-02-15T06:27:44.157Z,30.83
2023-02-15T06:28:44.130Z,29.63
2023-02-15T06:29:44.076Z,25.62
2023-02-15T06:30:44.097Z,25.00
2023-02-15T06:31:44.132Z,28.57
2023-02-15T06:32:44.018Z,29.17
2023-02-15T06:33:43.995Z,27.47
2023-02-15T06:34:43.962Z,28.65
2023-02-15T06:35:43.928Z,29.00
2023-02-15T06:36:43.909Z,27.54
2023-02-15T06:37:43.917Z,28.18
2023-02-15T06:38:43.869Z,27.28
2023-02-15T06:39:43.796Z,31.87
2023-02-15T06:40:43.781Z,30.14
2023-02-15T06:41:43.792Z,30.14
2023-02-15T06:42:43.751Z,25.15
2023-02-15T06:43:43.720Z,28.69
2023-02-15T06:44:43.689Z,27.72
2023-02-15T06:45:43.670Z,29.53
2023-02-15T06:46:43.660Z,30.14
2023-02-15T06:47:43.597Z,29.11
2023-02-15T06:48:43.603Z,29.87
2023-02-15T06:49:43.525Z,29.17
2023-02-15T06:50:43.520Z,27.38
2023-02-15T06:51:43.502Z,27.76
2023-02-15T06:52:43.475Z,28.15
2023-02-15T06:53:43.468Z,30.73
2023-02-15T06:54:43.416Z,30.79
2023-02-15T06:55:43.369Z,29.77
2023-02-15T06:56:43.343Z,30.41
2023-02-15T06:57:43.298Z,31.70
2023-02-15T06:58:43.286Z,28.82
2023-02-15T06:59:43.255Z,27.96
2023-02-15T07:00:43.273Z,31.39
2023-02-15T07:01:43.265Z,30.07
2023-02-15T07:02:43.208Z,31.39
2023-02-15T07:03:43.189Z,30.79
2023-02-15T07:04:43.135Z,29.40
2023-02-15T07:05:43.121Z,31.42
2023-02-15T07:06:43.048Z,30.03
2023-02-15T07:07:43.040Z,30.96
2023-02-15T07:08:43.039Z,33.04
2023-02-15T07:09:43.042Z,30.47
2023-02-15T07:10:43.039Z,30.78
2023-02-15T07:11:43.052Z,30.96
2023-02-15T07:12:43.086Z,31.23
2023-02-15T07:13:43.063Z,32.15
2023-02-15T07:14:43.072Z,30.47
2023-02-15T07:15:43.076Z,34.07
2023-02-15T07:16:43.066Z,33.25
2023-02-15T07:17:43.079Z,33.42
2023-02-15T07:18:43.073Z,31.20
2023-02-15T07:19:43.093Z,32.17
2023-02-15T07:20:43.109Z,33.55
2023-02-15T07:21:43.101Z,31.71
2023-02-15T07:22:43.116Z,33.12
2023-02-15T07:23:43.103Z,30.84
2023-02-15T07:24:43.128Z,34.35
2023-02-15T07:25:43.169Z,32.46
2023-02-15T07:26:43.157Z,35.15
2023-02-15T07:27:43.200Z,33.10
2023-02-15T07:28:43.146Z,35.63
2023-02-15T07:29:43.152Z,33.81
2023-02-15T07:30:43.176Z,36.71
2023-02-15T07:31:43.163Z,39.04
2023-02-15T07:32:43.352Z,39.32
2023-02-15T07:33:43.211Z,42.42
2023-02-15T07:34:43.197Z,40.37
2023-02-15T07:35:43.155Z,42.02
2023-02-15T07:36:43.182Z,46.17
2023-02-15T07:37:43.193Z,45.22
2023-02-15T07:38:43.153Z,45.86
2023-02-15T07:39:43.136Z,48.58
2023-02-15T07:40:43.184Z,48.91
2023-02-15T07:41:43.164Z,51.53
2023-02-15T07:42:43.199Z,51.72
2023-02-15T07:43:43.185Z,54.34
2023-02-15T07:44:43.180Z,56.49
2023-02-15T07:45:43.215Z,56.16
2023-02-15T07:46:43.222Z,61.09
2023-02-15T07:47:43.163Z,63.26
2023-02-15T07:48:43.237Z,63.87
2023-02-15T07:49:43.204Z,63.67
2023-02-15T07:50:43.181Z,65.89
2023-02-15T07:51:43.152Z,67.57
2023-02-15T07:52:43.205Z,69.92
2023-02-15T07:53:43.311Z,72.26
2023-02-15T07:54:43.167Z,76.71
2023-02-15T07:55:43.171Z,80.68
2023-02-15T07:56:43.150Z,86.34
2023-02-15T07:57:43.179Z,86.73
2023-02-15T07:58:43.167Z,87.48
2023-02-15T07:59:43.155Z,90.15
2023-02-15T08:00:43.182Z,90.90
2023-02-15T08:01:43.162Z,96.32
2023-02-15T08:02:43.238Z,98.14
2023-02-15T08:03:43.230Z,96.40
2023-02-15T08:04:43.190Z,97.21
2023-02-15T08:05:43.137Z,102.39
2023-02-15T08:06:43.153Z,102.07
2023-02-15T08:07:43.168Z,105.91
2023-02-15T08:08:43.138Z,107.18
2023-02-15T08:09:43.154Z,107.33
2023-02-15T08:10:43.142Z,112.01
2023-02-15T08:11:43.128Z,111.94
2023-02-15T08:12:43.144Z,112.42
2023-02-15T08:13:43.549Z,113.58
2023-02-15T08:14:43.150Z,112.48
2023-02-15T08:15:43.119Z,114.41
2023-02-15T08:16:43.251Z,114.20
2023-02-15T08:17:43.110Z,116.44
2023-02-15T08:18:43.076Z,115.50
2023-02-15T08:19:43.115Z,117.42
2023-02-15T08:20:43.089Z,117.85
2023-02-15T08:21:43.120Z,119.52
2023-02-15T08:22:43.099Z,119.89
2023-02-15T08:23:43.138Z,118.12
2023-02-15T08:24:43.113Z,119.79
2023-02-15T08:25:43.128Z,119.10
2023-02-15T08:26:43.119Z,118.47
2023-02-15T08:27:43.109Z,118.48
2023-02-15T08:28:43.156Z,116.61
2023-02-15T08:29:43.213Z,120.21
2023-02-15T08:30:43.115Z,118.89
2023-02-15T08:31:43.246Z,117.99
2023-02-15T08:32:43.094Z,118.06
2023-02-15T08:33:43.100Z,117.20
2023-02-15T08:34:43.115Z,117.74
2023-02-15T08:35:43.052Z,118.88
2023-02-15T08:36:43.051Z,120.07
2023-02-15T08:37:43.044Z,117.98
2023-02-15T08:38:43.046Z,121.69
2023-02-15T08:39:43.029Z,120.71
2023-02-15T08:40:43.029Z,116.00
2023-02-15T08:41:43.028Z,116.53
2023-02-15T08:42:43.035Z,117.58
2023-02-15T08:43:43.014Z,117.09
2023-02-15T08:44:42.971Z,119.90
2023-02-15T08:45:43.016Z,117.20
2023-02-15T08:46:42.999Z,116.86
2023-02-15T08:47:42.997Z,116.39
2023-02-15T08:48:43.011Z,116.40
2023-02-15T08:49:42.989Z,117.49
2023-02-15T08:50:43.016Z,117.60
2023-02-15T08:51:42.958Z,116.37
2023-02-15T08:52:42.993Z,116.88
2023-02-15T08:53:43.015Z,117.56
2023-02-15T08:54:42.964Z,115.78
2023-02-15T08:55:42.991Z,119.51
2023-02-15T08:56:43.002Z,119.82
2023-02-15T08:57:43.006Z,118.63
2023-02-15T08:58:43.032Z,120.62
2023-02-15T08:59:42.984Z,119.59
2023-02-15T09:00:43.026Z,120.03
2023-02-15T09:01:43.024Z,119.81
2023-02-15T09:02:42.988Z,121.37
2023-02-15T09:03:43.007Z,120.89
2023-02-15T09:04:43.034Z,122.55
2023-02-15T09:05:42.988Z,122.45
2023-02-15T09:06:43.002Z,120.92
2023-02-15T09:07:43.001Z,121.89
2023-02-15T09:08:42.973Z,122.59
2023-02-15T09:09:42.956Z,125.24
2023-02-15T09:10:42.968Z,124.41
2023-02-15T09:11:42.955Z,124.67
2023-02-15T09:12:42.935Z,124.84
2023-02-15T09:13:42.974Z,125.83
2023-02-15T09:14:42.931Z,125.28
2023-02-15T09:15:42.920Z,126.58
2023-02-15T09:16:42.949Z,127.25
2023-02-15T09:17:42.926Z,128.92
2023-02-15T09:18:42.874Z,130.07
2023-02-15T09:19:42.890Z,128.91
2023-02-15T09:20:42.861Z,130.09
2023-02-15T09:21:42.895Z,131.21
2023-02-15T09:22:42.845Z,132.50
2023-02-15T09:23:42.840Z,132.57
2023-02-15T09:24:42.805Z,133.04
2023-02-15T09:25:42.806Z,132.78
2023-02-15T09:26:42.841Z,133.92
2023-02-15T09:27:42.825Z,133.41
2023-02-15T09:28:42.789Z,136.69
2023-02-15T09:29:42.790Z,136.80
2023-02-15T09:30:42.823Z,139.51
2023-02-15T09:31:42.790Z,142.35
2023-02-15T09:32:42.762Z,145.66
2023-02-15T09:33:42.772Z,146.86
2023-02-15T09:34:42.786Z,149.62
2023-02-15T09:35:42.712Z,151.77
2023-02-15T09:36:42.697Z,153.30
2023-02-15T09:37:42.693Z,156.17
2023-02-15T09:38:42.699Z,160.79
2023-02-15T09:39:42.780Z,163.33
2023-02-15T09:40:42.676Z,164.90
2023-02-15T09:41:42.666Z,167.69
2023-02-15T09:42:42.672Z,171.70
2023-02-15T09:43:42.695Z,172.66
2023-02-15T09:44:42.642Z,176.29
2023-02-15T09:45:42.675Z,179.59
2023-02-15T09:46:42.643Z,182.65
2023-02-15T09:47:42.683Z,184.38
2023-02-15T09:48:42.615Z,185.90
2023-02-15T09:49:42.623Z,190.00
2023-02-15T09:50:42.598Z,194.48
2023-02-15T09:51:42.571Z,199.52
2023-02-15T09:52:42.590Z,201.30
2023-02-15T09:53:42.539Z,201.83
2023-02-15T09:54:42.556Z,204.90
2023-02-15T09:55:42.555Z,207.52
2023-02-15T09:56:42.512Z,209.90
2023-02-15T09:58:42.554Z,214.35
2023-02-15T10:04:42.508Z,225.42
2023-02-15T10:05:42.407Z,227.65
2023-02-15T10:06:42.424Z,228.49
2023-02-15T10:07:42.447Z,231.12
2023-02-15T10:08:42.449Z,234.45
2023-02-15T10:09:42.372Z,235.68
2023-02-15T10:10:42.379Z,238.57
2023-02-15T10:11:42.373Z,238.74
2023-02-15T10:12:42.384Z,243.60
2023-02-15T10:13:42.457Z,247.19
2023-02-15T10:14:42.366Z,247.25
2023-02-15T10:15:42.376Z,249.43
2023-02-15T10:16:42.464Z,249.65
2023-02-15T10:17:42.400Z,250.00
2023-02-15T10:18:42.422Z,249.58
2023-02-15T10:19:42.419Z,249.36
2023-02-15T10:40:42.417Z,248.52
2023-02-15T10:41:42.414Z,250.00
2023-02-15T10:42:42.388Z,249.27
2023-02-15T10:43:42.530Z,250.00
2023-02-15T10:44:42.416Z,249.62
2023-02-15T10:45:42.454Z,249.76
2023-02-15T10:46:42.409Z,249.06
2023-02-15T10:47:42.443Z,249.19
2023-02-15T10:48:42.421Z,248.68
2023-02-15T10:49:42.434Z,248.51
2023-02-15T10:50:42.419Z,249.79
2023-02-15T10:51:42.398Z,250.00
2023-02-15T10:52:42.414Z,249.59
2023-02-15T10:53:42.443Z,250.00
2023-02-15T10:54:42.434Z,250.00
2023-02-15T10:55:42.466Z,248.95
2023-02-15T10:56:42.425Z,249.08
2023-02-15T10:57:42.471Z,249.23
2023-02-15T10:58:42.451Z,250.00
2023-02-15T10:59:42.450Z,249.08
2023-02-15T11:00:42.452Z,249.32
2023-02-15T11:01:42.534Z,249.70
2023-02-15T11:02:42.477Z,249.84
2023-02-15T11:03:42.507Z,248.55
2023-02-15T11:04:42.500Z,248.99
2023-02-15T11:05:42.458Z,249.18
2023-02-15T11:06:42.455Z,248.57
2023-02-15T11:07:42.470Z,248.80
2023-02-15T11:08:42.497Z,250.00
2023-02-15T11:09:42.471Z,249.33
2023-02-15T11:10:42.437Z,248.50
2023-02-15T11:11:42.467Z,248.76
2023-02-15T11:20:42.475Z,248.91
2023-02-15T11:30:42.523Z,248.74
2023-02-15T11:31:42.679Z,249.29
2023-02-15T11:32:42.502Z,248.43
2023-02-15T11:33:42.657Z,247.67
2023-02-15T11:34:42.465Z,248.82
2023-02-15T11:35:42.486Z,249.18
2023-02-15T11:36:42.488Z,249.14
2023-02-15T11:37:42.492Z,249.47
2023-02-15T12:35:42.650Z,238.16
2023-02-15T12:36:42.627Z,236.21
2023-02-15T12:37:42.620Z,235.03
2023-02-15T12:38:42.641Z,234.93
2023-02-15T12:39:42.661Z,233.96
2023-02-15T12:40:42.653Z,233.78
2023-02-15T12:41:42.667Z,232.74
2023-02-15T12:42:42.661Z,232.14
2023-02-15T12:43:42.680Z,230.02
2023-02-15T12:44:42.691Z,230.46
2023-02-15T12:45:42.681Z,230.14
2023-02-15T12:46:42.711Z,229.70
2023-02-15T12:47:42.674Z,228.55
2023-02-15T12:48:42.710Z,227.17
2023-02-15T12:49:47.589Z,227.28
2023-02-15T12:50:43.678Z,227.39
2023-02-15T12:51:43.182Z,226.98
2023-02-15T12:52:42.558Z,224.95
2023-02-15T12:53:44.966Z,224.96
2023-02-15T12:54:42.705Z,225.58
2023-02-15T12:55:45.382Z,224.21
2023-02-15T12:56:42.631Z,223.58
2023-02-15T12:57:42.638Z,222.58
2023-02-15T12:58:42.548Z,222.24
2023-02-15T12:59:44.660Z,221.24
2023-02-15T13:00:42.519Z,221.33
2023-02-15T13:01:42.476Z,220.45
2023-02-15T13:02:42.398Z,219.53
2023-02-15T13:03:42.374Z,219.49
2023-02-15T13:04:42.321Z,219.60
2023-02-15T13:05:44.209Z,219.99
2023-02-15T13:06:42.214Z,221.13
2023-02-15T13:07:42.203Z,221.23
2023-02-15T13:08:42.171Z,221.86
2023-02-15T13:09:43.121Z,223.62
2023-02-15T13:10:42.101Z,225.15
2023-02-15T13:11:42.038Z,224.82
2023-02-15T13:12:42.027Z,224.39
2023-02-15T13:13:41.978Z,225.77
2023-02-15T13:14:41.937Z,226.63
2023-02-15T13:15:41.900Z,229.40
2023-02-15T13:16:41.940Z,230.48
2023-02-15T13:17:41.856Z,231.68
2023-02-15T13:18:41.822Z,231.91
2023-02-15T13:19:41.768Z,232.26
2023-02-15T13:20:41.738Z,233.09
2023-02-15T13:21:41.740Z,233.70
2023-02-15T13:22:41.691Z,234.23
2023-02-15T13:23:41.607Z,235.37
2023-02-15T13:24:41.594Z,235.21
2023-02-15T13:25:41.553Z,237.66
2023-02-15T13:26:41.505Z,238.77
2023-02-15T13:27:41.505Z,239.49
2023-02-15T13:28:41.451Z,240.60
2023-02-15T13:29:41.441Z,238.77
2023-02-15T13:30:41.376Z,239.74
2023-02-15T13:31:41.441Z,240.72
2023-02-15T13:32:41.262Z,242.64
2023-02-15T13:33:41.237Z,243.51
2023-02-15T13:34:41.195Z,245.15
2023-02-15T13:35:41.172Z,245.57
2023-02-15T13:36:41.132Z,245.48
2023-02-15T13:37:41.091Z,246.49
2023-02-15T13:38:41.080Z,248.12
2023-02-15T13:39:41.115Z,249.30
2023-02-15T13:40:41.117Z,249.80
2023-02-15T13:41:41.045Z,249.27
2023-02-15T13:42:41.050Z,247.82
2023-02-15T13:43:41.082Z,248.58
2023-02-15T13:44:41.077Z,248.84
2023-02-15T13:45:41.138Z,248.52
2023-02-15T13:46:43.147Z,249.38
2023-02-15T13:47:41.076Z,247.74
2023-02-15T13:48:48.445Z,247.71
2023-02-15T13:49:41.981Z,247.96
2023-02-15T13:50:40.956Z,248.03
2023-02-15T13:51:40.935Z,248.31
2023-02-15T13:52:40.867Z,246.80
2023-02-15T13:53:40.869Z,247.64
2023-02-15T13:54:40.811Z,246.53
2023-02-15T13:55:40.785Z,246.34
2023-02-15T13:56:40.728Z,244.96
2023-02-15T13:57:40.670Z,244.01
2023-02-15T13:58:40.674Z,245.67
2023-02-15T14:00:40.710Z,243.47
2023-02-15T14:02:40.632Z,243.11
2023-02-15T14:03:40.746Z,243.74
2023-02-15T14:04:40.652Z,243.55
2023-02-15T14:05:40.657Z,243.79
2023-02-15T14:06:40.765Z,242.78
2023-02-15T14:07:40.714Z,242.94
2023-02-15T14:08:40.671Z,243.90
2023-02-15T14:09:40.712Z,242.93
2023-02-15T14:10:40.739Z,243.20
2023-02-15T14:11:40.723Z,244.30
2023-02-15T14:12:40.750Z,246.50
2023-02-15T14:13:40.777Z,247.84
2023-02-15T14:14:40.771Z,249.58
2023-02-15T14:15:40.814Z,249.93
2023-02-15T14:16:40.831Z,250.00
2023-02-15T14:17:40.843Z,250.00
2023-02-15T14:18:40.818Z,249.68
2023-02-15T14:19:40.831Z,248.91
2023-02-15T14:20:40.882Z,249.58
2023-02-15T14:21:40.906Z,249.66
2023-02-15T14:22:41.294Z,248.58
2023-02-15T14:23:40.934Z,249.01
2023-02-15T14:24:41.851Z,249.69
2023-02-15T14:25:41.000Z,249.47
2023-02-15T14:26:40.950Z,247.62
2023-02-15T14:27:40.993Z,250.00
2023-02-15T14:28:40.989Z,248.75
2023-02-15T15:14:42.685Z,248.62
2023-02-15T16:06:42.644Z,247.50
2023-02-15T16:07:42.648Z,244.60
2023-02-15T16:08:42.677Z,246.80
2023-02-15T16:09:42.706Z,247.51
2023-02-15T16:10:42.724Z,247.20
2023-02-15T16:11:42.723Z,248.15
2023-02-15T16:12:42.748Z,248.44
2023-02-15T16:13:42.812Z,248.00
2023-02-15T16:14:42.803Z,247.99
2023-02-15T16:15:42.913Z,247.05